Time;durP1;ratioP1;P1;durP2;ratioP2;P2;SDS_P1;SDS_P2;PMS_P1;PMS_P2;Temp;Humidity;BMP_temperature;BMP_pressure;BME280_temperature;BME280_humidity;BME280_pressure;Samples;Min_cycle;Max_cycle;Signal;HPM_P1;HPM_P2
2022/10/11 00:02:06;;;;;;;11.73;8.97;;;9.50;99.90;10.90;97233.00;;;;5083489;28;20227;-88
2022/10/11 00:04:55;;;;;;;14.47;9.77;;;9.60;99.90;10.90;97234.00;;;;5089190;28;20230;-88
2022/10/11 00:07:44;;;;;;;11.03;8.57;;;9.70;99.90;10.70;97232.00;;;;5088036;28;20203;-88
2022/10/11 00:10:32;;;;;;;7.97;7.20;;;9.70;99.90;10.20;97234.00;;;;5088461;28;20257;-89
2022/10/11 00:13:25;;;;;;;8.97;7.37;;;9.60;99.90;10.00;97233.00;;;;5074439;28;20204;-88
2022/10/11 00:16:14;;;;;;;13.50;8.30;;;9.40;99.90;10.00;97233.00;;;;5089684;28;20273;-88
2022/10/11 00:19:10;;;;;;;10.27;7.47;;;9.30;99.90;9.80;97229.00;;;;5091263;28;20301;-89
2022/10/11 00:21:59;;;;;;;13.43;8.43;;;9.10;99.90;9.80;97237.00;;;;5079470;28;20226;-88
2022/10/11 00:24:48;;;;;;;10.50;7.97;;;;;9.90;97237.00;;;;5084215;28;20210;-88
2022/10/11 00:27:39;;;;;;;14.38;10.93;;;9.00;99.90;9.60;97239.00;;;;5079016;28;20390;-89
2022/10/11 00:30:32;;;;;;;14.50;8.63;;;8.90;99.90;9.60;97231.00;;;;5091819;28;20714;-87
2022/10/11 00:33:25;;;;;;;10.80;8.97;;;9.10;99.90;9.70;97235.00;;;;5092414;28;20199;-88
2022/10/11 00:36:24;;;;;;;18.50;8.40;;;8.90;99.90;10.10;97238.00;;;;5080355;28;20694;-88
2022/10/11 00:39:13;;;;;;;12.97;8.67;;;9.10;99.90;10.30;97236.00;;;;5088466;28;20280;-88
2022/10/11 00:42:04;;;;;;;11.97;8.03;;;8.90;99.90;10.50;97234.00;;;;5103377;22;20325;-79
2022/10/11 00:45:31;;;;;;;11.33;8.87;;;9.10;99.90;10.20;97229.00;;;;5077458;28;20234;-76
2022/10/11 00:48:26;;;;;;;12.20;9.70;;;9.10;99.90;10.20;97225.00;;;;5083611;28;20226;-77
2022/10/11 00:51:22;;;;;;;9.93;7.67;;;9.10;99.90;10.00;97226.00;;;;5082377;28;20207;-77
2022/10/11 00:54:15;;;;;;;10.70;7.43;;;9.10;99.90;10.10;97226.00;;;;5087124;28;20663;-78
2022/10/11 00:57:09;;;;;;;11.13;9.00;;;9.10;99.90;10.10;97230.00;;;;5085883;28;20203;-76
2022/10/11 01:00:00;;;;;;;11.70;8.70;;;9.10;99.90;10.10;97227.00;;;;5092197;28;20603;-78
2022/10/11 01:02:49;;;;;;;14.83;11.57;;;9.40;99.90;10.10;97228.00;;;;5083323;28;20395;-78
2022/10/11 01:05:40;;;;;;;12.90;9.73;;;9.10;99.90;10.40;97229.00;;;;5078047;28;20208;-77
2022/10/11 01:08:31;;;;;;;12.37;9.50;;;9.20;99.90;10.70;97233.00;;;;5075277;28;20246;-78
2022/10/11 01:11:23;;;;;;;13.67;8.23;;;9.40;99.90;10.60;97228.00;;;;5087354;28;20238;-78
2022/10/11 01:14:45;;;;;;;10.27;8.53;;;9.40;99.90;10.40;97231.00;;;;5071762;28;20200;-77
2022/10/11 01:17:46;;;;;;;13.60;9.97;;;9.50;99.90;10.30;97232.00;;;;5084194;28;20203;-78
2022/10/11 01:20:48;;;;;;;12.53;8.00;;;9.40;99.90;10.50;97231.00;;;;5074572;28;20277;-79
2022/10/11 01:24:20;;;;;;;12.70;9.10;;;9.50;99.90;10.20;97229.00;;;;5072587;28;20753;-78
2022/10/11 01:27:39;;;;;;;16.97;9.90;;;9.40;99.90;10.10;97225.00;;;;5081854;28;20254;-78
2022/10/11 01:30:32;;;;;;;11.17;8.37;;;9.30;99.90;10.20;97219.00;;;;5090008;28;20261;-77
2022/10/11 01:33:31;;;;;;;12.83;9.27;;;9.30;99.90;10.30;97225.00;;;;5098059;28;20199;-79
2022/10/11 01:36:28;;;;;;;11.70;9.37;;;9.40;99.90;10.20;97215.00;;;;5094037;28;20732;-79
2022/10/11 01:39:23;;;;;;;15.00;8.20;;;9.30;99.90;10.00;97218.00;;;;5088591;22;20240;-69
2022/10/11 01:42:13;;;;;;;9.90;8.60;;;9.30;99.90;10.00;97217.00;;;;5077371;28;20251;-67
2022/10/11 01:45:02;;;;;;;12.10;9.57;;;9.20;99.90;10.30;97222.00;;;;5088978;28;20241;-68
2022/10/11 01:48:05;;;;;;;12.93;8.37;;;9.20;99.90;10.10;97217.00;;;;5083605;28;20199;-70
2022/10/11 01:50:56;;;;;;;19.63;10.37;;;10.00;99.90;10.40;97215.00;;;;5078699;28;20211;-70
2022/10/11 01:54:23;;;;;;;12.70;9.10;;;9.20;99.90;10.60;97211.00;;;;5089917;28;20199;-67
2022/10/11 01:57:48;;;;;;;27.30;10.03;;;9.30;99.90;10.60;97215.00;;;;5051779;28;20634;-69
2022/10/11 02:00:46;;;;;;;12.33;8.63;;;9.40;99.90;10.30;97212.00;;;;5089372;28;20252;-70
2022/10/11 02:03:45;;;;;;;11.40;9.10;;;9.40;99.90;10.60;97212.00;;;;5088754;28;20343;-69
2022/10/11 02:06:47;;;;;;;13.13;10.88;;;9.30;99.90;10.70;97210.00;;;;5088679;28;20903;-69
2022/10/11 02:09:42;;;;;;;11.03;8.97;;;9.50;99.90;10.60;97215.00;;;;5089189;28;20222;-69
2022/10/11 02:12:36;;;;;;;13.60;7.77;;;9.50;99.90;10.50;97209.00;;;;5088432;28;20757;-69
2022/10/11 02:15:28;;;;;;;10.00;7.97;;;9.50;99.90;10.60;97206.00;;;;5086073;28;20239;-67
2022/10/11 02:18:22;;;;;;;10.87;8.90;;;9.40;99.90;10.60;97207.00;;;;5082348;28;20242;-69
2022/10/11 02:21:16;;;;;;;18.40;9.30;;;9.50;99.90;10.60;97208.00;;;;5083944;28;20268;-69
2022/10/11 02:24:11;;;;;;;11.80;8.40;;;9.50;99.90;10.80;97212.00;;;;5085513;28;20200;-69
2022/10/11 02:27:03;;;;;;;10.87;7.80;;;9.50;99.90;10.80;97208.00;;;;5085198;28;20195;-67
2022/10/11 02:29:54;;;;;;;10.13;7.73;;;9.50;99.90;10.90;97214.00;;;;5089274;28;20786;-69
2022/10/11 02:32:47;;;;;;;9.43;7.97;;;9.60;99.90;10.70;97212.00;;;;5077962;28;20262;-69
2022/10/11 02:35:42;;;;;;;10.03;9.10;;;9.60;99.90;10.90;97216.00;;;;5073320;28;20204;-70
2022/10/11 02:38:38;;;;;;;13.93;8.93;;;9.60;99.90;11.00;97215.00;;;;5087655;28;20312;-69
2022/10/11 02:41:32;;;;;;;14.77;9.33;;;9.70;99.90;11.10;97216.00;;;;5083694;28;20219;-70
2022/10/11 02:44:30;;;;;;;9.73;8.03;;;9.80;99.90;11.00;97211.00;;;;5082703;28;20286;-68
2022/10/11 02:47:19;;;;;;;11.30;8.70;;;9.80;99.90;11.10;97225.00;;;;5084713;28;20236;-69
2022/10/11 02:50:10;;;;;;;11.53;7.87;;;9.90;99.90;11.20;97222.00;;;;5080033;28;20281;-68
2022/10/11 02:52:59;;;;;;;12.90;8.23;;;9.90;99.90;11.20;97236.00;;;;5089037;28;20559;-69
2022/10/11 02:55:51;;;;;;;13.97;10.33;;;9.90;99.90;11.30;97224.00;;;;5073524;28;20208;-68
2022/10/11 02:58:40;;;;;;;11.73;8.33;;;10.00;99.90;11.30;97240.00;;;;5074753;28;20215;-68
2022/10/11 03:01:29;;;;;;;12.30;8.80;;;10.00;99.90;11.00;97238.00;;;;5085668;28;20610;-68
2022/10/11 03:04:17;;;;;;;11.50;8.27;;;10.00;99.90;11.30;97236.00;;;;5087068;28;20552;-68
2022/10/11 03:07:06;;;;;;;10.90;7.53;;;9.90;99.90;11.20;97245.00;;;;5087978;28;20199;-68
2022/10/11 03:09:55;;;;;;;11.67;8.00;;;10.00;99.90;11.30;97233.00;;;;5088098;28;20211;-68
2022/10/11 03:12:45;;;;;;;10.37;8.53;;;10.00;99.90;11.40;97237.00;;;;5075999;28;20281;-68
2022/10/11 03:15:34;;;;;;;10.60;8.27;;;10.00;99.90;11.20;97253.00;;;;5082271;28;20256;-68
2022/10/11 03:18:22;;;;;;;9.57;8.57;;;10.10;99.90;11.40;97242.00;;;;5086929;28;20295;-68
2022/10/11 03:21:11;;;;;;;13.23;8.73;;;10.20;99.90;11.50;97241.00;;;;5088259;28;20237;-70
2022/10/11 03:24:00;;;;;;;11.30;8.37;;;10.20;99.90;11.50;97243.00;;;;5078763;28;20276;-68
2022/10/11 03:26:48;;;;;;;9.13;7.90;;;10.30;99.90;11.40;97245.00;;;;5077934;28;20297;-70
2022/10/11 03:29:38;;;;;;;11.73;8.63;;;10.30;99.90;11.10;97249.00;;;;5086225;28;20251;-69
2022/10/11 03:32:28;;;;;;;10.07;8.77;;;10.30;99.90;11.20;97246.00;;;;5081265;28;20208;-67
2022/10/11 03:35:17;;;;;;;9.07;7.97;;;10.30;99.90;11.10;97240.00;;;;5087391;28;20203;-67
2022/10/11 03:38:05;;;;;;;8.97;8.07;;;10.20;99.90;11.50;97239.00;;;;5074301;28;20298;-68
2022/10/11 03:40:55;;;;;;;10.67;8.03;;;10.20;99.90;11.60;97243.00;;;;5079018;28;20207;-69
2022/10/11 03:43:44;;;;;;;9.50;8.07;;;10.30;99.90;11.70;97244.00;;;;5088969;28;20211;-69
2022/10/11 03:46:34;;;;;;;9.20;7.80;;;10.30;99.90;11.70;97241.00;;;;5085788;28;20237;-69
2022/10/11 03:49:23;;;;;;;17.33;9.00;;;10.40;99.90;11.80;97249.00;;;;5079007;28;20256;-69
2022/10/11 03:52:12;;;;;;;8.93;8.03;;;10.50;99.90;11.40;97246.00;;;;5077201;28;20246;-69
2022/10/11 03:55:01;;;;;;;8.47;7.47;;;10.50;99.90;11.60;97245.00;;;;5083765;28;20678;-69
2022/10/11 03:57:49;;;;;;;10.70;7.70;;;10.40;99.90;11.70;97249.00;;;;5085080;28;20203;-70
2022/10/11 04:00:39;;;;;;;10.90;7.17;;;10.50;99.90;11.90;97258.00;;;;5092296;28;20227;-69
2022/10/11 04:03:29;;;;;;;10.93;8.50;;;10.60;99.90;11.90;97258.00;;;;5090019;28;20219;-69
2022/10/11 04:06:18;;;;;;;8.87;7.57;;;10.60;99.90;11.90;97267.00;;;;5085996;28;20214;-69
2022/10/11 04:09:07;;;;;;;13.47;7.93;;;10.60;99.90;11.90;97256.00;;;;5083444;28;20588;-69
2022/10/11 04:11:55;;;;;;;10.57;7.30;;;10.60;99.90;11.90;97262.00;;;;5091842;28;20269;-69
2022/10/11 04:14:44;;;;;;;11.77;8.87;;;10.60;99.90;11.50;97260.00;;;;5085727;28;20215;-69
2022/10/11 04:17:33;;;;;;;12.87;8.17;;;10.60;99.90;11.60;97258.00;;;;5086676;28;20280;-69
2022/10/11 04:20:23;;;;;;;9.23;6.90;;;10.60;99.90;12.00;97265.00;;;;5089859;28;20732;-69
2022/10/11 04:23:11;;;;;;;10.77;8.87;;;10.70;99.90;12.00;97277.00;;;;5089591;28;20712;-69
2022/10/11 04:26:04;;;;;;;12.93;8.73;;;10.70;99.90;12.00;97269.00;;;;5086557;28;20241;-69
2022/10/11 04:28:53;;;;;;;13.40;8.70;;;10.70;99.90;11.90;97263.00;;;;5090462;28;20587;-69
2022/10/11 04:31:42;;;;;;;15.30;7.93;;;10.70;99.90;11.90;97276.00;;;;5091188;28;20206;-69
2022/10/11 04:34:30;;;;;;;12.80;7.77;;;10.70;99.90;11.70;97276.00;;;;5089319;28;20249;-70
2022/10/11 04:37:21;;;;;;;8.50;7.60;;;10.70;99.90;11.60;97273.00;;;;5088139;28;20759;-69
2022/10/11 04:40:11;;;;;;;19.07;14.07;;;10.70;99.90;11.90;97272.00;;;;5079677;28;20232;-69
2022/10/11 04:43:00;;;;;;;26.67;21.03;;;10.70;99.90;12.10;97275.00;;;;5084637;28;20651;-69
2022/10/11 04:45:49;;;;;;;10.03;8.73;;;10.80;99.90;11.90;97280.00;;;;5077378;28;20683;-69
2022/10/11 04:48:40;;;;;;;14.07;11.60;;;10.80;99.90;11.90;97274.00;;;;5079723;28;20755;-69
2022/10/11 04:51:29;;;;;;;15.43;10.47;;;10.70;99.90;12.00;97285.00;;;;5082345;28;20261;-68
2022/10/11 04:54:19;;;;;;;9.77;8.77;;;10.80;99.90;11.80;97283.00;;;;5084985;28;20262;-69
2022/10/11 04:57:08;;;;;;;14.67;9.17;;;10.70;99.90;12.00;97275.00;;;;5085371;28;20196;-69
2022/10/11 04:59:57;;;;;;;13.33;8.13;;;10.70;99.90;11.70;97282.00;;;;5082191;28;20739;-69
2022/10/11 05:02:45;;;;;;;10.18;9.07;;;10.40;99.90;11.70;97276.00;;;;5075727;28;20489;-69
2022/10/11 05:05:34;;;;;;;10.45;9.05;;;11.00;99.90;11.70;97280.00;;;;5088628;28;20991;-69
2022/10/11 05:08:23;;;;;;;9.13;6.83;;;10.70;99.90;11.80;97289.00;;;;5087230;28;20239;-69
2022/10/11 05:11:15;;;;;;;8.90;7.83;;;10.00;99.90;11.90;97288.00;;;;5079829;28;20285;-69
2022/10/11 05:14:04;;;;;;;10.87;6.50;;;10.70;99.90;12.10;97288.00;;;;5084064;28;20260;-69
2022/10/11 05:16:53;;;;;;;9.03;6.53;;;10.70;99.90;12.00;97295.00;;;;5083552;28;20253;-69
2022/10/11 05:19:41;;;;;;;12.17;8.43;;;10.80;99.90;11.80;97297.00;;;;5087907;28;20241;-68
2022/10/11 05:22:30;;;;;;;9.37;8.10;;;10.80;99.90;11.80;97299.00;;;;5090170;28;20240;-68
2022/10/11 05:25:19;;;;;;;9.10;7.43;;;10.70;99.90;12.00;97291.00;;;;5089141;28;20233;-68
2022/10/11 05:28:09;;;;;;;8.33;7.33;;;10.80;99.90;11.80;97291.00;;;;5079431;28;20270;-69
2022/10/11 05:30:58;;;;;;;14.23;12.50;;;10.70;99.90;11.90;97299.00;;;;5083077;28;20770;-68
2022/10/11 05:33:47;;;;;;;11.30;8.13;;;10.80;99.90;11.60;97300.00;;;;5083037;28;20292;-69
2022/10/11 05:36:36;;;;;;;9.90;8.00;;;10.70;99.90;11.70;97303.00;;;;5080222;28;20827;-68
2022/10/11 05:39:25;;;;;;;10.50;7.77;;;10.70;99.90;11.60;97303.00;;;;5078484;28;20266;-69
2022/10/11 05:42:13;;;;;;;11.07;7.90;;;10.70;99.90;11.50;97310.00;;;;5079940;28;20196;-69
2022/10/11 05:45:04;;;;;;;10.70;9.00;;;10.60;99.90;11.50;97320.00;;;;5085667;28;20686;-69
2022/10/11 05:47:53;;;;;;;7.63;6.87;;;10.60;99.90;11.50;97319.00;;;;5085601;28;20202;-69
2022/10/11 05:50:42;;;;;;;9.63;7.47;;;10.60;99.90;11.40;97316.00;;;;5079905;28;20196;-69
2022/10/11 05:53:30;;;;;;;8.90;7.23;;;10.60;99.90;11.50;97320.00;;;;5078943;28;20199;-69
2022/10/11 05:56:22;;;;;;;9.73;8.23;;;10.60;99.90;11.70;97319.00;;;;5084341;28;20199;-69
2022/10/11 05:59:11;;;;;;;12.10;9.27;;;10.60;99.90;11.70;97324.00;;;;5082707;28;20277;-69
2022/10/11 06:02:01;;;;;;;16.50;7.90;;;10.60;99.90;11.50;97330.00;;;;5076960;28;20257;-71
2022/10/11 06:04:50;;;;;;;10.13;6.77;;;10.60;99.90;11.40;97335.00;;;;5077572;28;20256;-70
2022/10/11 06:07:39;;;;;;;8.47;7.23;;;10.60;99.90;11.20;97340.00;;;;5071363;28;20219;-70
2022/10/11 06:10:28;;;;;;;10.37;8.43;;;10.50;99.90;11.40;97330.00;;;;5088648;28;20207;-69
2022/10/11 06:13:17;;;;;;;8.07;7.23;;;10.50;99.90;11.50;97344.00;;;;5086895;28;20207;-68
2022/10/11 06:16:07;;;;;;;13.33;7.80;;;10.50;99.90;11.50;97342.00;;;;5085137;28;20247;-71
2022/10/11 06:18:58;;;;;;;9.23;7.60;;;10.50;99.90;11.40;97341.00;;;;5067567;28;20251;-72
2022/10/11 06:21:47;;;;;;;13.37;8.10;;;10.50;99.90;11.40;97354.00;;;;5085650;28;20284;-69
2022/10/11 06:24:35;;;;;;;9.13;7.50;;;10.60;99.90;11.80;97349.00;;;;5078229;28;20259;-68
2022/10/11 06:27:24;;;;;;;9.60;8.40;;;10.60;99.90;11.50;97356.00;;;;5075404;28;20587;-69
2022/10/11 06:30:14;;;;;;;11.50;7.60;;;10.60;99.90;11.50;97353.00;;;;5080738;28;20601;-69
2022/10/11 06:33:03;;;;;;;9.47;6.53;;;10.50;99.90;11.40;97358.00;;;;5078357;28;20204;-70
2022/10/11 06:36:00;;;;;;;9.73;7.20;;;10.60;99.90;11.60;97361.00;;;;5078826;28;20609;-70
2022/10/11 06:38:53;;;;;;;14.13;7.77;;;10.70;99.90;11.60;97372.00;;;;5079894;28;20226;-69
2022/10/11 06:41:45;;;;;;;10.37;7.13;;;10.70;99.90;11.80;97369.00;;;;5077451;28;20200;-66
2022/10/11 06:44:34;;;;;;;15.27;7.53;;;10.70;99.90;11.80;97371.00;;;;5080084;28;20257;-69
2022/10/11 06:47:22;;;;;;;11.20;7.97;;;10.80;99.90;11.80;97369.00;;;;5078441;28;20214;-70
2022/10/11 06:50:12;;;;;;;10.77;7.53;;;10.80;99.90;12.00;97373.00;;;;5085637;28;20695;-69
2022/10/11 06:53:02;;;;;;;13.17;7.90;;;10.90;99.90;12.30;97372.00;;;;5075586;28;20200;-69
2022/10/11 06:55:51;;;;;;;10.23;6.97;;;11.00;99.90;12.60;97387.00;;;;5084359;28;20206;-69
2022/10/11 06:58:40;;;;;;;7.87;7.07;;;11.10;99.90;12.70;97387.00;;;;5087432;28;20219;-67
2022/10/11 07:01:29;;;;;;;8.87;7.13;;;11.20;99.90;12.90;97385.00;;;;5089209;28;20202;-67
2022/10/11 07:04:18;;;;;;;8.63;6.53;;;11.40;99.90;13.00;97391.00;;;;5087326;28;20223;-67
2022/10/11 07:07:06;;;;;;;8.90;6.43;;;11.50;99.90;13.20;97390.00;;;;5082825;28;20195;-67
2022/10/11 07:09:56;;;;;;;9.20;5.93;;;11.70;99.90;13.40;97380.00;;;;5079360;28;20710;-67
2022/10/11 07:12:45;;;;;;;11.00;6.53;;;11.80;99.90;13.50;97386.00;;;;5080149;28;20683;-67
2022/10/11 07:15:39;;;;;;;6.93;5.60;;;11.90;99.90;13.50;97384.00;;;;5084566;28;20245;-68
2022/10/11 07:18:28;;;;;;;11.63;6.37;;;12.00;99.90;13.70;97386.00;;;;5079996;28;20294;-68
2022/10/11 07:21:17;;;;;;;12.40;7.17;;;12.20;99.90;13.70;97385.00;;;;5083273;28;20191;-67
2022/10/11 07:24:06;;;;;;;9.27;6.90;;;12.30;99.90;13.90;97379.00;;;;5079654;28;20265;-68
2022/10/11 07:26:56;;;;;;;7.60;6.90;;;12.40;99.90;14.20;97384.00;;;;5080141;28;20708;-67
2022/10/11 07:29:45;;;;;;;10.23;7.43;;;12.60;99.90;14.40;97386.00;;;;5083007;28;20223;-67
2022/10/11 07:32:34;;;;;;;8.80;6.83;;;12.70;99.90;14.60;97392.00;;;;5084671;28;20287;-67
2022/10/11 07:35:23;;;;;;;11.83;7.17;;;12.90;99.90;14.70;97391.00;;;;5085333;28;20198;-67
2022/10/11 07:38:14;;;;;;;10.50;7.67;;;13.00;99.90;14.80;97398.00;;;;5082729;28;20266;-69
2022/10/11 07:41:06;;;;;;;11.80;8.43;;;13.10;99.90;15.00;97394.00;;;;5083562;28;20191;-67
2022/10/11 07:43:56;;;;;;;9.03;6.80;;;13.30;99.90;15.10;97397.00;;;;5078585;28;20751;-68
2022/10/11 07:46:45;;;;;;;9.57;7.03;;;13.40;99.90;15.10;97409.00;;;;5080396;28;20228;-67
2022/10/11 07:49:33;;;;;;;14.17;7.27;;;13.40;99.90;15.00;97418.00;;;;5074417;28;20298;-68
2022/10/11 07:52:22;;;;;;;12.90;7.73;;;13.50;99.90;15.10;97410.00;;;;5085712;28;20200;-67
2022/10/11 07:55:11;;;;;;;9.57;7.20;;;13.60;99.90;15.10;97412.00;;;;5081102;28;20199;-68
2022/10/11 07:57:59;;;;;;;10.07;8.43;;;13.70;99.90;15.00;97418.00;;;;5078765;28;20199;-67
2022/10/11 08:00:53;;;;;;;10.40;7.73;;;13.70;99.90;15.20;97421.00;;;;5084697;28;20210;-68
2022/10/11 08:03:42;;;;;;;12.10;7.47;;;13.70;99.90;15.20;97416.00;;;;5084401;28;20617;-68
2022/10/11 08:06:31;;;;;;;13.23;8.07;;;13.10;99.90;15.20;97414.00;;;;5081400;28;20256;-67
2022/10/11 08:09:20;;;;;;;9.60;7.33;;;13.80;99.90;15.20;97424.00;;;;5085272;28;20716;-68
2022/10/11 08:12:09;;;;;;;8.80;7.03;;;13.90;99.90;15.30;97424.00;;;;5083499;28;20666;-68
2022/10/11 08:14:58;;;;;;;10.60;8.17;;;13.90;99.90;15.50;97421.00;;;;5082154;28;20195;-68
2022/10/11 08:17:48;;;;;;;13.17;7.93;;;14.00;99.90;15.70;97410.00;;;;5078716;28;20246;-68
2022/10/11 08:20:39;;;;;;;12.73;7.07;;;14.10;99.90;16.10;97408.00;;;;5085557;28;20527;-68
2022/10/11 08:23:28;;;;;;;11.77;7.63;;;14.40;99.90;16.50;97416.00;;;;5081214;28;20207;-68
2022/10/11 08:26:16;;;;;;;11.03;7.83;;;14.70;99.90;16.90;97411.00;;;;5083394;28;20254;-68
2022/10/11 08:29:05;;;;;;;9.33;6.47;;;15.00;99.90;17.20;97414.00;;;;5087340;28;20227;-68
2022/10/11 08:31:54;;;;;;;7.33;6.47;;;15.30;99.90;17.70;97409.00;;;;5081597;28;20195;-68
2022/10/11 08:34:44;;;;;;;8.77;6.07;;;15.60;99.90;18.00;97409.00;;;;5084705;28;20204;-68
2022/10/11 08:37:33;;;;;;;10.67;6.60;;;15.90;99.90;18.50;97417.00;;;;5081874;28;20238;-68
2022/10/11 08:40:24;;;;;;;11.67;5.70;;;16.30;99.90;19.30;97426.00;;;;5082928;28;20254;-68
2022/10/11 08:43:28;;;;;;;10.33;8.37;;;16.70;99.90;19.70;97419.00;;;;5081138;28;20191;-67
2022/10/11 08:46:21;;;;;;;9.90;5.10;;;17.10;99.90;20.20;97419.00;;;;5083842;28;20203;-67
2022/10/11 08:49:13;;;;;;;7.70;5.47;;;17.60;99.90;20.30;97416.00;;;;5083693;28;20269;-67
2022/10/11 08:52:06;;;;;;;13.53;6.63;;;18.00;99.90;20.80;97419.00;;;;5080258;28;20603;-68
2022/10/11 08:54:59;;;;;;;7.87;5.83;;;18.30;99.90;20.70;97418.00;;;;5082992;28;20293;-68
2022/10/11 08:57:54;;;;;;;8.00;5.23;;;18.50;99.90;20.70;97431.00;;;;5082987;28;20647;-68
2022/10/11 09:00:46;;;;;;;9.13;5.57;;;18.70;99.90;20.90;97425.00;;;;5083620;28;20212;-68
2022/10/11 09:03:39;;;;;;;7.20;5.40;;;18.80;99.90;21.00;97432.00;;;;5083157;28;20191;-68
2022/10/11 09:06:40;;;;;;;7.63;5.57;;;18.90;99.90;20.80;97427.00;;;;5085934;28;20219;-68
2022/10/11 09:09:58;;;;;;;4.57;4.17;;;18.90;99.90;20.70;97425.00;;;;5081256;28;20927;-68
2022/10/11 09:12:59;;;;;;;5.00;4.10;;;18.90;99.90;21.10;97425.00;;;;5082051;28;20341;-68
2022/10/11 09:15:56;;;;;;;4.63;3.60;;;19.00;99.90;21.50;97434.00;;;;5088679;28;20234;-68
2022/10/11 09:19:06;;;;;;;8.80;4.03;;;19.20;99.90;21.90;97424.00;;;;5084502;28;20230;-68
2022/10/11 09:22:06;;;;;;;13.17;7.47;;;19.40;99.90;22.10;97425.00;;;;5083779;28;20226;-68
2022/10/11 09:25:15;;;;;;;9.20;3.93;;;19.70;99.90;22.30;97425.00;;;;5083773;28;20218;-68
2022/10/11 09:28:16;;;;;;;7.90;4.83;;;20.00;99.90;22.20;97429.00;;;;5085498;28;20207;-68
2022/10/11 09:31:09;;;;;;;7.37;3.77;;;20.20;99.90;22.50;97430.00;;;;5072885;28;20200;-68
2022/10/11 09:34:09;;;;;;;4.57;3.73;;;20.30;99.90;22.40;97427.00;;;;5086065;28;20607;-68
2022/10/11 09:37:05;;;;;;;7.50;4.77;;;20.40;99.90;22.60;97424.00;;;;5086584;28;20196;-68
2022/10/11 09:40:02;;;;;;;10.47;4.57;;;20.50;99.90;22.90;97425.00;;;;5080857;28;20262;-67
2022/10/11 09:42:51;;;;;;;7.17;3.97;;;20.70;99.90;22.90;97425.00;;;;5078923;28;20208;-68
2022/10/11 09:45:43;;;;;;;9.37;4.10;;;20.80;99.90;23.10;97421.00;;;;5090122;28;20637;-68
2022/10/11 09:48:41;;;;;;;10.77;5.37;;;20.90;99.90;23.30;97428.00;;;;5071370;28;20223;-67
2022/10/11 09:51:30;;;;;;;5.07;3.20;;;21.10;99.90;23.40;97427.00;;;;5085058;28;20207;-68
2022/10/11 09:54:26;;;;;;;4.90;3.23;;;21.20;99.90;22.80;97419.00;;;;5083507;28;20257;-68
2022/10/11 09:57:24;;;;;;;9.07;4.53;;;21.20;99.90;23.20;97423.00;;;;5078424;28;20231;-68
2022/10/11 10:00:22;;;;;;;5.23;3.60;;;21.20;99.90;23.10;97419.00;;;;5083494;28;20210;-68
2022/10/11 10:03:29;;;;;;;10.37;3.30;;;21.20;99.90;23.20;97427.00;;;;5084700;28;20288;-68
2022/10/11 10:06:25;;;;;;;8.10;3.50;;;21.30;99.90;23.10;97429.00;;;;5084962;28;20719;-68
2022/10/11 10:09:26;;;;;;;7.93;4.17;;;21.20;99.90;23.40;97429.00;;;;5079235;28;20227;-68
2022/10/11 10:12:22;;;;;;;5.20;3.03;;;21.30;99.90;23.70;97431.00;;;;5082830;28;20229;-68
2022/10/11 10:15:18;;;;;;;10.70;4.00;;;21.40;99.90;24.00;97429.00;;;;5079171;28;20757;-68
2022/10/11 10:18:09;;;;;;;8.03;3.87;;;21.60;99.90;24.10;97430.00;;;;5080766;28;20223;-68
2022/10/11 10:20:59;;;;;;;9.83;3.40;;;21.70;99.90;24.30;97422.00;;;;5086090;28;20199;-68
2022/10/11 10:23:54;;;;;;;4.67;3.60;;;21.90;99.90;24.30;97420.00;;;;5088612;28;20702;-68
2022/10/11 10:27:16;;;;;;;9.47;4.23;;;22.10;99.90;24.90;97416.00;;;;5073705;28;20270;-68
2022/10/11 10:30:17;;;;;;;6.60;3.37;;;22.40;99.90;24.90;97414.00;;;;5084353;28;20231;-68
2022/10/11 10:33:10;;;;;;;5.90;3.83;;;22.80;99.90;24.50;97405.00;;;;5079852;28;20211;-68
2022/10/11 10:36:04;;;;;;;10.30;3.90;;;23.00;99.90;25.40;97413.00;;;;5088673;28;20250;-68
2022/10/11 10:39:01;;;;;;;10.57;5.17;;;23.20;99.90;25.50;97408.00;;;;5082290;28;20227;-68
2022/10/11 10:41:50;;;;;;;9.20;4.43;;;23.40;99.90;25.60;97397.00;;;;5082634;28;20274;-68
2022/10/11 10:44:39;;;;;;;10.37;4.10;;;23.60;98.90;25.70;97395.00;;;;5086915;28;20250;-68
2022/10/11 10:48:04;;;;;;;5.70;3.00;;;23.80;97.80;25.70;97396.00;;;;5081674;28;20250;-68
2022/10/11 10:50:58;;;;;;;8.97;4.07;;;24.00;97.70;26.60;97399.00;;;;5087244;28;20208;-68
2022/10/11 10:53:55;;;;;;;9.77;3.70;;;24.20;97.60;26.70;97400.00;;;;5086993;28;20287;-68
2022/10/11 10:56:52;;;;;;;8.87;3.83;;;24.50;95.60;26.70;97398.00;;;;5082688;28;20285;-68
2022/10/11 11:00:01;;;;;;;8.10;3.70;;;24.70;95.60;27.20;97394.00;;;;5081981;28;20707;-68
2022/10/11 11:02:58;;;;;;;8.00;3.17;;;24.90;94.80;27.00;97400.00;;;;5080596;28;20595;-67
2022/10/11 11:05:55;;;;;;;10.40;4.77;;;25.20;94.10;27.00;97406.00;;;;5082681;28;20602;-67
2022/10/11 11:09:11;;;;;;;6.73;3.17;;;25.40;92.30;26.40;97395.00;;;;5075722;28;20229;-67
2022/10/11 11:12:18;;;;;;;9.90;3.53;;;25.50;91.60;27.60;97398.00;;;;5088621;28;20338;-68
2022/10/11 11:15:15;;;;;;;5.40;2.93;;;25.40;91.40;27.40;97399.00;;;;5080505;28;20267;-68
2022/10/11 11:18:27;;;;;;;7.47;3.10;;;25.60;90.40;26.50;97393.00;;;;5076266;28;20215;-67
2022/10/11 11:21:31;;;;;;;4.47;3.40;;;25.20;88.50;26.20;97391.00;;;;5087514;28;20206;-68
2022/10/11 11:24:33;;;;;;;5.37;4.10;;;25.10;87.70;25.70;97381.00;;;;5080710;28;20669;-68
2022/10/11 11:27:46;;;;;;;9.00;3.30;;;24.60;88.60;26.10;97381.00;;;;5080616;28;20670;-67
2022/10/11 11:30:47;;;;;;;7.75;3.60;;;24.70;89.70;26.90;97381.00;;;;5088315;28;20190;-67
2022/10/11 11:33:50;;;;;;;9.50;3.53;;;25.00;90.10;27.30;97385.00;;;;5086589;28;20213;-68
2022/10/11 11:36:47;;;;;;;10.43;4.03;;;25.20;90.30;27.70;97375.00;;;;5088318;28;20671;-68
2022/10/11 11:39:42;;;;;;;10.00;3.10;;;25.30;90.00;28.20;97378.00;;;;5087160;28;20584;-67
2022/10/11 11:42:39;;;;;;;5.03;4.53;;;25.60;90.00;28.60;97376.00;;;;5089124;28;20194;-68
2022/10/11 11:45:32;;;;;;;7.20;3.72;;;25.90;88.00;29.10;97370.00;;;;5088265;28;20958;-67
2022/10/11 11:48:24;;;;;;;9.27;4.38;;;26.30;87.50;29.90;97369.00;;;;5087859;28;20724;-67
2022/10/11 11:51:20;;;;;;;11.32;3.70;;;26.80;86.90;30.20;97369.00;;;;5087736;28;20205;-67
2022/10/11 11:54:27;;;;;;;4.22;3.17;;;27.30;85.00;30.40;97364.00;;;;5088114;28;20208;-67
2022/10/11 11:57:30;;;;;;;7.10;4.50;;;27.70;82.70;29.90;97358.00;;;;5083959;28;20203;-67
2022/10/11 12:00:21;;;;;;;6.05;3.50;;;28.00;80.90;30.70;97361.00;;;;5081377;28;20198;-67
2022/10/11 12:03:24;;;;;;;5.53;3.28;;;28.20;80.20;29.50;97366.00;;;;5079186;28;20210;-67
2022/10/11 12:06:28;;;;;;;4.38;3.42;;;28.30;76.90;30.10;97358.00;;;;5075537;28;20228;-67
2022/10/11 12:09:22;;;;;;;7.93;3.67;;;28.00;76.50;31.20;97355.00;;;;5084729;28;20229;-68
2022/10/11 12:12:29;;;;;;;9.30;2.80;;;28.20;78.00;31.90;97358.00;;;;5077535;28;20578;-68
2022/10/11 12:15:24;;;;;;;3.90;3.25;;;28.70;77.90;32.00;97352.00;;;;5085102;28;20195;-68
2022/10/11 12:18:16;;;;;;;7.38;3.15;;;29.10;75.70;32.10;97351.00;;;;5080628;28;20220;-68
2022/10/11 12:21:07;;;;;;;8.30;3.42;;;29.50;72.70;32.00;97354.00;;;;5084831;28;20219;-69
2022/10/11 12:23:59;;;;;;;3.80;3.08;;;29.70;70.80;31.70;97353.00;;;;5088609;28;20200;-69
2022/10/11 12:26:50;;;;;;;5.68;3.20;;;29.80;68.60;32.00;97352.00;;;;5084161;28;20223;-68
2022/10/11 12:29:48;;;;;;;5.53;3.38;;;29.70;68.60;31.80;97357.00;;;;5080833;28;20226;-68
2022/10/11 12:32:53;;;;;;;5.22;3.58;;;29.80;68.10;31.50;97353.00;;;;5083414;28;20696;-68
2022/10/11 12:36:02;;;;;;;5.97;3.40;;;29.80;68.00;31.50;97361.00;;;;5080600;28;20219;-68
2022/10/11 12:39:51;;;;;;;7.75;3.55;;;29.70;67.70;31.70;97348.00;;;;5084238;28;20238;-68
2022/10/11 12:43:11;;;;;;;6.65;3.78;;;29.50;67.90;32.10;97354.00;;;;5079462;28;20211;-69
2022/10/11 12:46:56;;;;;;;6.22;3.83;;;29.70;68.10;32.30;97354.00;;;;5087325;28;20269;-69
2022/10/11 12:49:59;;;;;;;6.95;3.42;;;29.90;68.20;33.10;97348.00;;;;5090164;28;20709;-68
2022/10/11 12:52:57;;;;;;;4.38;3.47;;;30.30;68.20;33.30;97350.00;;;;5086529;28;20261;-69